sensor_id;sensor_type;location;lat;lon;timestamp;temperature;humidity
5960;DHT22;3006;50.956;7.002;2022-12-29T00:01:00;11.60;99.90
5960;DHT22;3006;50.956;7.002;2022-12-29T00:03:28;11.60;99.90
5960;DHT22;3006;50.956;7.002;2022-12-29T00:05:57;11.60;99.90
5960;DHT22;3006;50.956;7.002;2022-12-29T00:08:25;11.50;99.90
5960;DHT22;3006;50.956;7.002;2022-12-29T00:11:08;11.60;99.90
5960;DHT22;3006;50.956;7.002;2022-12-29T00:13:37;11.50;99.90
5960;DHT22;3006;50.956;7.002;2022-12-29T00:16:23;11.40;99.90
5960;DHT22;3006;50.956;7.002;2022-12-29T00:18:51;11.50;99.90
5960;DHT22;3006;50.956;7.002;2022-12-29T00:21:21;11.50;99.90
5960;DHT22;3006;50.956;7.002;2022-12-29T00:24:10;11.50;99.90
5960;DHT22;3006;50.956;7.002;2022-12-29T00:27:09;11.60;99.90
5960;DHT22;3006;50.956;7.002;2022-12-29T00:29:56;11.60;99.90
5960;DHT22;3006;50.956;7.002;2022-12-29T00:32:43;11.60;99.90
5960;DHT22;3006;50.956;7.002;2022-12-29T00:35:31;11.50;99.90
5960;DHT22;3006;50.956;7.002;2022-12-29T00:38:03;11.50;99.90
5960;DHT22;3006;50.956;7.002;2022-12-29T00:40:49;11.50;99.90
5960;DHT22;3006;50.956;7.002;2022-12-29T00:43:36;11.50;99.90
5960;DHT22;3006;50.956;7.002;2022-12-29T00:46:21;11.50;99.90
5960;DHT22;3006;50.956;7.002;2022-12-29T00:48:49;11.50;99.90
5960;DHT22;3006;50.956;7.002;2022-12-29T00:51:46;11.60;99.90
5960;DHT22;3006;50.956;7.002;2022-12-29T00:54:15;11.60;99.90
5960;DHT22;3006;50.956;7.002;2022-12-29T00:56:46;11.60;99.90
5960;DHT22;3006;50.956;7.002;2022-12-29T00:59:18;11.60;99.90
5960;DHT22;3006;50.956;7.002;2022-12-29T01:01:47;11.70;99.90
5960;DHT22;3006;50.956;7.002;2022-12-29T01:04:15;11.70;99.90
5960;DHT22;3006;50.956;7.002;2022-12-29T01:06:44;11.70;99.90
5960;DHT22;3006;50.956;7.002;2022-12-29T01:09:15;11.80;99.90
5960;DHT22;3006;50.956;7.002;2022-12-29T01:12:01;11.80;99.90
5960;DHT22;3006;50.956;7.002;2022-12-29T01:14:30;11.80;99.90
5960;DHT22;3006;50.956;7.002;2022-12-29T01:16:58;11.70;99.90
5960;DHT22;3006;50.956;7.002;2022-12-29T01:19:27;11.80;99.90
5960;DHT22;3006;50.956;7.002;2022-12-29T01:21:55;11.80;99.90
5960;DHT22;3006;50.956;7.002;2022-12-29T01:24:23;11.80;99.90
5960;DHT22;3006;50.956;7.002;2022-12-29T01:26:53;11.80;99.90
5960;DHT22;3006;50.956;7.002;2022-12-29T01:29:21;11.80;99.90
5960;DHT22;3006;50.956;7.002;2022-12-29T01:31:51;11.80;99.90
5960;DHT22;3006;50.956;7.002;2022-12-29T01:34:19;11.80;99.90
5960;DHT22;3006;50.956;7.002;2022-12-29T01:36:47;11.90;99.90
5960;DHT22;3006;50.956;7.002;2022-12-29T01:39:15;11.90;99.90
5960;DHT22;3006;50.956;7.002;2022-12-29T01:41:43;11.90;99.90
5960;DHT22;3006;50.956;7.002;2022-12-29T01:44:47;12.00;99.90
5960;DHT22;3006;50.956;7.002;2022-12-29T01:47:23;12.10;99.90
5960;DHT22;3006;50.956;7.002;2022-12-29T01:49:55;12.10;99.90
5960;DHT22;3006;50.956;7.002;2022-12-29T01:52:27;12.20;99.90
5960;DHT22;3006;50.956;7.002;2022-12-29T01:54:57;12.20;99.90
5960;DHT22;3006;50.956;7.002;2022-12-29T01:57:30;12.40;99.90
5960;DHT22;3006;50.956;7.002;2022-12-29T02:00:03;12.40;99.90
5960;DHT22;3006;50.956;7.002;2022-12-29T02:02:40;12.40;99.90
5960;DHT22;3006;50.956;7.002;2022-12-29T02:05:16;12.40;99.90
5960;DHT22;3006;50.956;7.002;2022-12-29T02:07:46;12.50;99.90
5960;DHT22;3006;50.956;7.002;2022-12-29T02:10:18;12.50;99.90
5960;DHT22;3006;50.956;7.002;2022-12-29T02:12:47;12.40;99.90
5960;DHT22;3006;50.956;7.002;2022-12-29T02:15:15;12.40;99.90
5960;DHT22;3006;50.956;7.002;2022-12-29T02:18:02;12.40;99.90
5960;DHT22;3006;50.956;7.002;2022-12-29T02:20:59;12.40;99.90
5960;DHT22;3006;50.956;7.002;2022-12-29T02:23:42;12.40;99.90
5960;DHT22;3006;50.956;7.002;2022-12-29T02:26:34;12.40;99.90
5960;DHT22;3006;50.956;7.002;2022-12-29T02:29:21;12.50;99.90
5960;DHT22;3006;50.956;7.002;2022-12-29T02:31:59;12.50;99.90
5960;DHT22;3006;50.956;7.002;2022-12-29T02:34:38;12.50;99.90
5960;DHT22;3006;50.956;7.002;2022-12-29T02:37:17;12.50;99.90
5960;DHT22;3006;50.956;7.002;2022-12-29T02:39:50;12.50;99.90
5960;DHT22;3006;50.956;7.002;2022-12-29T02:42:24;12.50;99.90
5960;DHT22;3006;50.956;7.002;2022-12-29T02:44:59;12.50;99.90
5960;DHT22;3006;50.956;7.002;2022-12-29T02:47:36;12.50;99.90
5960;DHT22;3006;50.956;7.002;2022-12-29T02:50:11;12.50;99.90
5960;DHT22;3006;50.956;7.002;2022-12-29T02:52:48;12.50;99.90
5960;DHT22;3006;50.956;7.002;2022-12-29T02:55:17;12.50;99.90
5960;DHT22;3006;50.956;7.002;2022-12-29T02:57:44;12.50;99.90
5960;DHT22;3006;50.956;7.002;2022-12-29T03:00:15;12.50;99.90
5960;DHT22;3006;50.956;7.002;2022-12-29T03:03:09;12.50;99.90
5960;DHT22;3006;50.956;7.002;2022-12-29T03:05:58;12.60;99.90
5960;DHT22;3006;50.956;7.002;2022-12-29T03:08:36;12.60;99.90
5960;DHT22;3006;50.956;7.002;2022-12-29T03:11:08;12.60;99.90
5960;DHT22;3006;50.956;7.002;2022-12-29T03:14:02;12.60;99.90
5960;DHT22;3006;50.956;7.002;2022-12-29T03:16:55;12.60;99.90
5960;DHT22;3006;50.956;7.002;2022-12-29T03:19:30;12.60;99.90
5960;DHT22;3006;50.956;7.002;2022-12-29T03:22:02;12.50;99.90
5960;DHT22;3006;50.956;7.002;2022-12-29T03:24:57;12.50;99.90
5960;DHT22;3006;50.956;7.002;2022-12-29T03:27:29;12.50;99.90
5960;DHT22;3006;50.956;7.002;2022-12-29T03:30:01;12.40;99.90
5960;DHT22;3006;50.956;7.002;2022-12-29T03:32:33;12.40;99.90
5960;DHT22;3006;50.956;7.002;2022-12-29T03:35:05;12.40;99.90
5960;DHT22;3006;50.956;7.002;2022-12-29T03:37:37;12.40;99.90
5960;DHT22;3006;50.956;7.002;2022-12-29T03:40:08;12.40;99.90
5960;DHT22;3006;50.956;7.002;2022-12-29T03:42:37;12.40;99.90
5960;DHT22;3006;50.956;7.002;2022-12-29T03:45:08;12.40;99.90
5960;DHT22;3006;50.956;7.002;2022-12-29T03:47:37;12.40;99.90
5960;DHT22;3006;50.956;7.002;2022-12-29T03:50:08;12.40;99.90
5960;DHT22;3006;50.956;7.002;2022-12-29T03:52:39;12.40;99.90
5960;DHT22;3006;50.956;7.002;2022-12-29T03:55:08;12.50;99.90
5960;DHT22;3006;50.956;7.002;2022-12-29T03:57:38;12.40;99.90
5960;DHT22;3006;50.956;7.002;2022-12-29T04:00:12;12.40;99.90
5960;DHT22;3006;50.956;7.002;2022-12-29T04:02:40;12.40;99.90
5960;DHT22;3006;50.956;7.002;2022-12-29T04:05:15;12.40;99.90
5960;DHT22;3006;50.956;7.002;2022-12-29T04:07:44;12.40;99.90
5960;DHT22;3006;50.956;7.002;2022-12-29T04:10:12;12.40;99.90
5960;DHT22;3006;50.956;7.002;2022-12-29T04:12:41;12.30;99.90
5960;DHT22;3006;50.956;7.002;2022-12-29T04:15:09;12.30;99.90
5960;DHT22;3006;50.956;7.002;2022-12-29T04:17:38;12.30;99.90
5960;DHT22;3006;50.956;7.002;2022-12-29T04:20:07;12.20;99.90
5960;DHT22;3006;50.956;7.002;2022-12-29T04:23:09;12.20;99.90
5960;DHT22;3006;50.956;7.002;2022-12-29T04:25:37;12.30;99.90
5960;DHT22;3006;50.956;7.002;2022-12-29T04:28:07;12.20;99.90
5960;DHT22;3006;50.956;7.002;2022-12-29T04:30:46;12.20;99.90
5960;DHT22;3006;50.956;7.002;2022-12-29T04:33:18;12.20;99.90
5960;DHT22;3006;50.956;7.002;2022-12-29T04:35:47;12.20;99.90
5960;DHT22;3006;50.956;7.002;2022-12-29T04:38:17;12.30;99.90
5960;DHT22;3006;50.956;7.002;2022-12-29T04:40:47;12.20;99.90
5960;DHT22;3006;50.956;7.002;2022-12-29T04:43:17;12.20;99.90
5960;DHT22;3006;50.956;7.002;2022-12-29T04:46:04;12.30;99.90
5960;DHT22;3006;50.956;7.002;2022-12-29T04:49:08;12.30;99.90
5960;DHT22;3006;50.956;7.002;2022-12-29T04:51:51;12.40;99.90
5960;DHT22;3006;50.956;7.002;2022-12-29T04:54:21;12.40;99.90
5960;DHT22;3006;50.956;7.002;2022-12-29T04:56:56;12.40;99.90
5960;DHT22;3006;50.956;7.002;2022-12-29T04:59:24;12.40;99.90
5960;DHT22;3006;50.956;7.002;2022-12-29T05:01:56;12.40;99.90
5960;DHT22;3006;50.956;7.002;2022-12-29T05:04:24;12.40;99.90
5960;DHT22;3006;50.956;7.002;2022-12-29T05:06:53;12.40;99.90
5960;DHT22;3006;50.956;7.002;2022-12-29T05:09:22;12.40;99.90
5960;DHT22;3006;50.956;7.002;2022-12-29T05:11:51;12.40;99.90
5960;DHT22;3006;50.956;7.002;2022-12-29T05:14:19;12.40;99.90
5960;DHT22;3006;50.956;7.002;2022-12-29T05:16:47;12.40;99.90
5960;DHT22;3006;50.956;7.002;2022-12-29T05:19:16;12.40;99.90
5960;DHT22;3006;50.956;7.002;2022-12-29T05:21:45;12.50;99.90
5960;DHT22;3006;50.956;7.002;2022-12-29T05:24:13;12.50;99.90
5960;DHT22;3006;50.956;7.002;2022-12-29T05:26:43;12.50;99.90
5960;DHT22;3006;50.956;7.002;2022-12-29T05:29:32;12.50;99.90
5960;DHT22;3006;50.956;7.002;2022-12-29T05:32:00;12.50;99.90
5960;DHT22;3006;50.956;7.002;2022-12-29T05:34:28;12.50;99.90
5960;DHT22;3006;50.956;7.002;2022-12-29T05:36:56;12.50;99.90
5960;DHT22;3006;50.956;7.002;2022-12-29T05:39:24;12.50;99.90
5960;DHT22;3006;50.956;7.002;2022-12-29T05:41:58;12.50;99.90
5960;DHT22;3006;50.956;7.002;2022-12-29T05:44:47;12.50;99.90
5960;DHT22;3006;50.956;7.002;2022-12-29T05:47:37;12.40;99.90
5960;DHT22;3006;50.956;7.002;2022-12-29T05:50:28;12.40;99.90
5960;DHT22;3006;50.956;7.002;2022-12-29T05:53:11;12.40;99.90
5960;DHT22;3006;50.956;7.002;2022-12-29T05:55:41;12.40;99.90
5960;DHT22;3006;50.956;7.002;2022-12-29T05:58:17;12.50;99.90
5960;DHT22;3006;50.956;7.002;2022-12-29T06:00:46;12.50;99.90
5960;DHT22;3006;50.956;7.002;2022-12-29T06:03:15;12.50;99.90
5960;DHT22;3006;50.956;7.002;2022-12-29T06:05:44;12.50;99.90
5960;DHT22;3006;50.956;7.002;2022-12-29T06:08:14;12.50;99.90
5960;DHT22;3006;50.956;7.002;2022-12-29T06:10:43;12.50;99.90
5960;DHT22;3006;50.956;7.002;2022-12-29T06:13:11;12.60;99.90
5960;DHT22;3006;50.956;7.002;2022-12-29T06:15:44;12.60;99.90
5960;DHT22;3006;50.956;7.002;2022-12-29T06:18:12;12.60;99.90
5960;DHT22;3006;50.956;7.002;2022-12-29T06:20:46;12.60;99.90
5960;DHT22;3006;50.956;7.002;2022-12-29T06:23:16;12.60;99.90
5960;DHT22;3006;50.956;7.002;2022-12-29T06:25:47;12.60;99.90
5960;DHT22;3006;50.956;7.002;2022-12-29T06:28:15;12.60;99.90
5960;DHT22;3006;50.956;7.002;2022-12-29T06:30:45;12.60;99.90
5960;DHT22;3006;50.956;7.002;2022-12-29T06:33:13;12.50;99.90
5960;DHT22;3006;50.956;7.002;2022-12-29T06:35:43;12.50;99.90
5960;DHT22;3006;50.956;7.002;2022-12-29T06:38:13;12.60;99.90
5960;DHT22;3006;50.956;7.002;2022-12-29T06:40:42;12.60;99.90
5960;DHT22;3006;50.956;7.002;2022-12-29T06:43:30;12.50;99.90
5960;DHT22;3006;50.956;7.002;2022-12-29T06:46:08;12.50;99.90
5960;DHT22;3006;50.956;7.002;2022-12-29T06:48:36;12.50;99.90
5960;DHT22;3006;50.956;7.002;2022-12-29T06:51:04;12.50;99.90
5960;DHT22;3006;50.956;7.002;2022-12-29T06:53:32;12.50;99.90
5960;DHT22;3006;50.956;7.002;2022-12-29T06:56:00;12.40;99.90
5960;DHT22;3006;50.956;7.002;2022-12-29T06:58:28;12.40;99.90
5960;DHT22;3006;50.956;7.002;2022-12-29T07:00:58;12.40;99.90
5960;DHT22;3006;50.956;7.002;2022-12-29T07:03:27;12.40;99.90
5960;DHT22;3006;50.956;7.002;2022-12-29T07:05:55;12.40;99.90
5960;DHT22;3006;50.956;7.002;2022-12-29T07:08:24;12.40;99.90
5960;DHT22;3006;50.956;7.002;2022-12-29T07:10:52;12.40;99.90
5960;DHT22;3006;50.956;7.002;2022-12-29T07:13:20;12.50;99.90
5960;DHT22;3006;50.956;7.002;2022-12-29T07:15:48;12.50;99.90
5960;DHT22;3006;50.956;7.002;2022-12-29T07:18:16;12.50;99.90
5960;DHT22;3006;50.956;7.002;2022-12-29T07:20:46;12.50;99.90
5960;DHT22;3006;50.956;7.002;2022-12-29T07:23:14;12.60;99.90
5960;DHT22;3006;50.956;7.002;2022-12-29T07:25:42;12.60;99.90
5960;DHT22;3006;50.956;7.002;2022-12-29T07:28:10;12.60;99.90
5960;DHT22;3006;50.956;7.002;2022-12-29T07:30:38;12.60;99.90
5960;DHT22;3006;50.956;7.002;2022-12-29T07:33:06;12.70;99.90
5960;DHT22;3006;50.956;7.002;2022-12-29T07:35:34;12.70;99.90
5960;DHT22;3006;50.956;7.002;2022-12-29T07:38:04;12.70;99.90
5960;DHT22;3006;50.956;7.002;2022-12-29T07:40:32;12.70;99.90
5960;DHT22;3006;50.956;7.002;2022-12-29T07:43:00;12.60;99.90
5960;DHT22;3006;50.956;7.002;2022-12-29T07:45:34;12.60;99.90
5960;DHT22;3006;50.956;7.002;2022-12-29T07:48:08;12.50;99.90
5960;DHT22;3006;50.956;7.002;2022-12-29T07:50:36;12.50;99.90
5960;DHT22;3006;50.956;7.002;2022-12-29T07:53:06;12.50;99.90
5960;DHT22;3006;50.956;7.002;2022-12-29T07:55:34;12.60;99.90
5960;DHT22;3006;50.956;7.002;2022-12-29T07:58:02;12.50;99.90
5960;DHT22;3006;50.956;7.002;2022-12-29T08:00:30;12.60;99.90
5960;DHT22;3006;50.956;7.002;2022-12-29T08:02:58;12.60;99.90
5960;DHT22;3006;50.956;7.002;2022-12-29T08:05:26;12.60;99.90
5960;DHT22;3006;50.956;7.002;2022-12-29T08:07:54;12.60;99.90
5960;DHT22;3006;50.956;7.002;2022-12-29T08:10:24;12.60;99.90
5960;DHT22;3006;50.956;7.002;2022-12-29T08:12:53;12.60;99.90
5960;DHT22;3006;50.956;7.002;2022-12-29T08:15:21;12.60;99.90
5960;DHT22;3006;50.956;7.002;2022-12-29T08:17:58;12.60;99.90
5960;DHT22;3006;50.956;7.002;2022-12-29T08:20:26;12.60;99.90
5960;DHT22;3006;50.956;7.002;2022-12-29T08:22:54;12.60;99.90
5960;DHT22;3006;50.956;7.002;2022-12-29T08:25:22;12.60;99.90
5960;DHT22;3006;50.956;7.002;2022-12-29T08:27:51;12.60;99.90
5960;DHT22;3006;50.956;7.002;2022-12-29T08:30:19;12.60;99.90
5960;DHT22;3006;50.956;7.002;2022-12-29T08:32:47;12.60;99.90
5960;DHT22;3006;50.956;7.002;2022-12-29T08:35:15;12.60;99.90
5960;DHT22;3006;50.956;7.002;2022-12-29T08:37:43;12.60;99.90
5960;DHT22;3006;50.956;7.002;2022-12-29T08:40:12;12.60;99.90
5960;DHT22;3006;50.956;7.002;2022-12-29T08:42:40;12.50;99.90
5960;DHT22;3006;50.956;7.002;2022-12-29T08:45:10;12.50;99.90
5960;DHT22;3006;50.956;7.002;2022-12-29T08:47:38;12.50;99.90
5960;DHT22;3006;50.956;7.002;2022-12-29T08:50:07;12.50;99.90
5960;DHT22;3006;50.956;7.002;2022-12-29T08:52:35;12.50;99.90
5960;DHT22;3006;50.956;7.002;2022-12-29T08:55:03;12.60;99.90
5960;DHT22;3006;50.956;7.002;2022-12-29T08:57:32;12.50;99.90
5960;DHT22;3006;50.956;7.002;2022-12-29T09:00:21;12.50;99.90
5960;DHT22;3006;50.956;7.002;2022-12-29T09:02:51;12.50;99.90
5960;DHT22;3006;50.956;7.002;2022-12-29T09:05:19;12.60;99.90
5960;DHT22;3006;50.956;7.002;2022-12-29T09:07:47;12.60;99.90
5960;DHT22;3006;50.956;7.002;2022-12-29T09:10:16;12.60;99.90
5960;DHT22;3006;50.956;7.002;2022-12-29T09:12:44;12.60;99.90
5960;DHT22;3006;50.956;7.002;2022-12-29T09:15:12;12.60;99.90
5960;DHT22;3006;50.956;7.002;2022-12-29T09:17:41;12.60;99.90
5960;DHT22;3006;50.956;7.002;2022-12-29T09:20:11;12.60;99.90
5960;DHT22;3006;50.956;7.002;2022-12-29T09:22:40;12.70;99.90
5960;DHT22;3006;50.956;7.002;2022-12-29T09:25:09;12.70;99.90
5960;DHT22;3006;50.956;7.002;2022-12-29T09:27:38;12.70;99.90
5960;DHT22;3006;50.956;7.002;2022-12-29T09:30:09;12.70;99.90
5960;DHT22;3006;50.956;7.002;2022-12-29T09:32:38;12.70;99.90
5960;DHT22;3006;50.956;7.002;2022-12-29T09:35:12;12.70;99.90
5960;DHT22;3006;50.956;7.002;2022-12-29T09:37:41;12.70;99.90
5960;DHT22;3006;50.956;7.002;2022-12-29T09:40:25;12.80;99.90
5960;DHT22;3006;50.956;7.002;2022-12-29T09:43:15;12.80;99.90
5960;DHT22;3006;50.956;7.002;2022-12-29T09:45:47;12.80;99.90
5960;DHT22;3006;50.956;7.002;2022-12-29T09:48:22;12.90;99.90
5960;DHT22;3006;50.956;7.002;2022-12-29T09:50:56;12.90;99.90
5960;DHT22;3006;50.956;7.002;2022-12-29T09:53:29;12.90;99.90
5960;DHT22;3006;50.956;7.002;2022-12-29T09:56:00;12.90;99.90
5960;DHT22;3006;50.956;7.002;2022-12-29T09:58:35;12.90;99.90
5960;DHT22;3006;50.956;7.002;2022-12-29T10:01:06;12.90;99.90
5960;DHT22;3006;50.956;7.002;2022-12-29T10:03:44;12.90;99.90
5960;DHT22;3006;50.956;7.002;2022-12-29T10:06:18;12.90;99.90
5960;DHT22;3006;50.956;7.002;2022-12-29T10:08:55;13.00;99.90
5960;DHT22;3006;50.956;7.002;2022-12-29T10:11:36;13.00;99.90
5960;DHT22;3006;50.956;7.002;2022-12-29T10:14:21;13.00;99.90
5960;DHT22;3006;50.956;7.002;2022-12-29T10:16:59;13.00;99.90
5960;DHT22;3006;50.956;7.002;2022-12-29T10:19:44;13.00;99.90
5960;DHT22;3006;50.956;7.002;2022-12-29T10:22:24;13.00;99.90
5960;DHT22;3006;50.956;7.002;2022-12-29T10:24:56;13.10;99.90
5960;DHT22;3006;50.956;7.002;2022-12-29T10:27:25;13.10;99.90
5960;DHT22;3006;50.956;7.002;2022-12-29T10:29:55;13.10;99.90
5960;DHT22;3006;50.956;7.002;2022-12-29T10:32:30;13.20;99.90
5960;DHT22;3006;50.956;7.002;2022-12-29T10:35:05;13.20;99.90
5960;DHT22;3006;50.956;7.002;2022-12-29T10:37:41;13.10;99.90
5960;DHT22;3006;50.956;7.002;2022-12-29T10:40:15;13.10;99.90
5960;DHT22;3006;50.956;7.002;2022-12-29T10:42:50;13.20;99.90
5960;DHT22;3006;50.956;7.002;2022-12-29T10:45:22;13.20;99.90
5960;DHT22;3006;50.956;7.002;2022-12-29T10:47:55;13.20;99.90
5960;DHT22;3006;50.956;7.002;2022-12-29T10:50:25;13.20;99.90
5960;DHT22;3006;50.956;7.002;2022-12-29T10:52:56;13.20;99.90
5960;DHT22;3006;50.956;7.002;2022-12-29T10:55:28;13.20;99.90
5960;DHT22;3006;50.956;7.002;2022-12-29T10:58:02;13.30;99.90
5960;DHT22;3006;50.956;7.002;2022-12-29T11:00:33;13.30;99.90
5960;DHT22;3006;50.956;7.002;2022-12-29T11:03:25;13.40;99.90
5960;DHT22;3006;50.956;7.002;2022-12-29T11:06:01;13.40;99.90
5960;DHT22;3006;50.956;7.002;2022-12-29T11:08:36;13.40;99.90
5960;DHT22;3006;50.956;7.002;2022-12-29T11:11:06;13.50;99.90
5960;DHT22;3006;50.956;7.002;2022-12-29T11:13:47;13.50;99.90
5960;DHT22;3006;50.956;7.002;2022-12-29T11:16:15;13.50;99.90
5960;DHT22;3006;50.956;7.002;2022-12-29T11:18:54;13.60;99.90
5960;DHT22;3006;50.956;7.002;2022-12-29T11:21:30;13.60;99.90
5960;DHT22;3006;50.956;7.002;2022-12-29T11:24:01;13.60;99.90
5960;DHT22;3006;50.956;7.002;2022-12-29T11:26:31;13.60;99.90
5960;DHT22;3006;50.956;7.002;2022-12-29T11:31:56;13.60;99.90
5960;DHT22;3006;50.956;7.002;2022-12-29T11:34:31;13.50;99.90
5960;DHT22;3006;50.956;7.002;2022-12-29T11:37:02;13.50;99.90
5960;DHT22;3006;50.956;7.002;2022-12-29T11:39:36;13.60;99.90
5960;DHT22;3006;50.956;7.002;2022-12-29T11:42:10;13.50;99.90
5960;DHT22;3006;50.956;7.002;2022-12-29T11:44:43;13.60;99.90
5960;DHT22;3006;50.956;7.002;2022-12-29T11:47:20;13.50;99.90
5960;DHT22;3006;50.956;7.002;2022-12-29T11:49:53;13.50;99.90
5960;DHT22;3006;50.956;7.002;2022-12-29T11:52:27;13.50;99.90
5960;DHT22;3006;50.956;7.002;2022-12-29T11:55:00;13.50;99.90
5960;DHT22;3006;50.956;7.002;2022-12-29T11:57:29;13.40;99.90
5960;DHT22;3006;50.956;7.002;2022-12-29T12:00:01;13.40;99.90
5960;DHT22;3006;50.956;7.002;2022-12-29T12:02:42;13.40;99.90
5960;DHT22;3006;50.956;7.002;2022-12-29T12:05:21;13.40;99.90
5960;DHT22;3006;50.956;7.002;2022-12-29T12:07:55;13.40;99.90
5960;DHT22;3006;50.956;7.002;2022-12-29T12:10:29;13.40;99.90
5960;DHT22;3006;50.956;7.002;2022-12-29T12:13:04;13.40;99.90
5960;DHT22;3006;50.956;7.002;2022-12-29T12:15:36;13.40;99.90
5960;DHT22;3006;50.956;7.002;2022-12-29T12:18:17;13.40;99.90
5960;DHT22;3006;50.956;7.002;2022-12-29T12:20:49;13.40;99.90
5960;DHT22;3006;50.956;7.002;2022-12-29T12:23:28;13.40;99.90
5960;DHT22;3006;50.956;7.002;2022-12-29T12:26:09;13.40;99.90
5960;DHT22;3006;50.956;7.002;2022-12-29T12:28:45;13.30;99.90
5960;DHT22;3006;50.956;7.002;2022-12-29T12:31:21;13.20;99.90
5960;DHT22;3006;50.956;7.002;2022-12-29T12:33:57;13.30;99.90
5960;DHT22;3006;50.956;7.002;2022-12-29T12:36:52;13.30;99.90
5960;DHT22;3006;50.956;7.002;2022-12-29T12:39:27;13.30;99.90
5960;DHT22;3006;50.956;7.002;2022-12-29T12:42:10;13.30;99.90
5960;DHT22;3006;50.956;7.002;2022-12-29T12:44:48;13.30;99.90
5960;DHT22;3006;50.956;7.002;2022-12-29T12:47:33;13.20;99.90
5960;DHT22;3006;50.956;7.002;2022-12-29T12:50:20;13.30;99.90
5960;DHT22;3006;50.956;7.002;2022-12-29T12:53:09;13.30;99.90
5960;DHT22;3006;50.956;7.002;2022-12-29T12:55:49;13.30;99.90
5960;DHT22;3006;50.956;7.002;2022-12-29T12:58:29;13.30;99.90
5960;DHT22;3006;50.956;7.002;2022-12-29T13:01:11;13.30;99.90
5960;DHT22;3006;50.956;7.002;2022-12-29T13:04:02;13.30;99.90
5960;DHT22;3006;50.956;7.002;2022-12-29T13:06:41;13.30;99.90
5960;DHT22;3006;50.956;7.002;2022-12-29T13:09:25;13.30;99.90
5960;DHT22;3006;50.956;7.002;2022-12-29T13:12:04;13.40;99.90
5960;DHT22;3006;50.956;7.002;2022-12-29T13:14:47;13.40;99.90
5960;DHT22;3006;50.956;7.002;2022-12-29T13:17:24;13.40;99.90
5960;DHT22;3006;50.956;7.002;2022-12-29T13:20:00;13.40;99.90
5960;DHT22;3006;50.956;7.002;2022-12-29T13:22:34;13.30;99.90
5960;DHT22;3006;50.956;7.002;2022-12-29T13:25:22;13.20;99.90
5960;DHT22;3006;50.956;7.002;2022-12-29T13:27:58;13.10;99.90
5960;DHT22;3006;50.956;7.002;2022-12-29T13:30:33;13.10;99.90
5960;DHT22;3006;50.956;7.002;2022-12-29T13:33:10;13.00;99.90
5960;DHT22;3006;50.956;7.002;2022-12-29T13:35:54;13.00;99.90
5960;DHT22;3006;50.956;7.002;2022-12-29T13:38:28;13.00;99.90
5960;DHT22;3006;50.956;7.002;2022-12-29T13:41:01;12.90;99.90
5960;DHT22;3006;50.956;7.002;2022-12-29T13:43:34;12.90;99.90
5960;DHT22;3006;50.956;7.002;2022-12-29T13:46:07;12.80;99.90
5960;DHT22;3006;50.956;7.002;2022-12-29T13:48:41;12.90;99.90
5960;DHT22;3006;50.956;7.002;2022-12-29T13:51:11;12.90;99.90
5960;DHT22;3006;50.956;7.002;2022-12-29T13:53:59;12.80;99.90
5960;DHT22;3006;50.956;7.002;2022-12-29T13:56:33;12.80;99.90
5960;DHT22;3006;50.956;7.002;2022-12-29T13:59:08;12.80;99.90
5960;DHT22;3006;50.956;7.002;2022-12-29T14:01:43;12.80;99.90
5960;DHT22;3006;50.956;7.002;2022-12-29T14:04:20;12.90;99.90
5960;DHT22;3006;50.956;7.002;2022-12-29T14:06:59;12.80;99.90
5960;DHT22;3006;50.956;7.002;2022-12-29T14:09:45;12.80;99.90
5960;DHT22;3006;50.956;7.002;2022-12-29T14:12:42;12.80;99.90
5960;DHT22;3006;50.956;7.002;2022-12-29T14:15:22;12.80;99.90
5960;DHT22;3006;50.956;7.002;2022-12-29T14:18:09;12.80;99.90
5960;DHT22;3006;50.956;7.002;2022-12-29T14:20:39;12.80;99.90
5960;DHT22;3006;50.956;7.002;2022-12-29T14:23:27;12.70;99.90
5960;DHT22;3006;50.956;7.002;2022-12-29T14:25:59;12.70;99.90
5960;DHT22;3006;50.956;7.002;2022-12-29T14:28:29;12.70;99.90
5960;DHT22;3006;50.956;7.002;2022-12-29T14:30:58;12.70;99.90
5960;DHT22;3006;50.956;7.002;2022-12-29T14:33:31;12.70;99.90
5960;DHT22;3006;50.956;7.002;2022-12-29T14:36:24;12.60;99.90
5960;DHT22;3006;50.956;7.002;2022-12-29T14:38:53;12.60;99.90
5960;DHT22;3006;50.956;7.002;2022-12-29T14:41:27;12.60;99.90
5960;DHT22;3006;50.956;7.002;2022-12-29T14:44:02;12.60;99.90
5960;DHT22;3006;50.956;7.002;2022-12-29T14:46:45;12.60;99.90
5960;DHT22;3006;50.956;7.002;2022-12-29T14:49:19;12.60;99.90
5960;DHT22;3006;50.956;7.002;2022-12-29T14:51:49;12.50;99.90
5960;DHT22;3006;50.956;7.002;2022-12-29T14:54:43;12.50;99.90
5960;DHT22;3006;50.956;7.002;2022-12-29T14:57:20;12.40;99.90
5960;DHT22;3006;50.956;7.002;2022-12-29T14:59:53;12.40;99.90
5960;DHT22;3006;50.956;7.002;2022-12-29T15:02:26;12.40;99.90
5960;DHT22;3006;50.956;7.002;2022-12-29T15:05:02;12.30;99.90
5960;DHT22;3006;50.956;7.002;2022-12-29T15:07:31;12.30;99.90
5960;DHT22;3006;50.956;7.002;2022-12-29T15:10:06;12.20;99.90
5960;DHT22;3006;50.956;7.002;2022-12-29T15:12:38;12.20;99.90
5960;DHT22;3006;50.956;7.002;2022-12-29T15:15:18;12.20;99.90
5960;DHT22;3006;50.956;7.002;2022-12-29T15:17:47;12.10;99.90
5960;DHT22;3006;50.956;7.002;2022-12-29T15:20:23;12.20;99.90
5960;DHT22;3006;50.956;7.002;2022-12-29T15:22:55;12.10;99.90
5960;DHT22;3006;50.956;7.002;2022-12-29T15:25:24;12.10;99.90
5960;DHT22;3006;50.956;7.002;2022-12-29T15:27:57;12.00;99.90
5960;DHT22;3006;50.956;7.002;2022-12-29T15:30:26;12.00;99.90
5960;DHT22;3006;50.956;7.002;2022-12-29T15:32:54;12.00;99.90
5960;DHT22;3006;50.956;7.002;2022-12-29T15:35:27;11.90;99.90
5960;DHT22;3006;50.956;7.002;2022-12-29T15:37:57;11.90;99.90
5960;DHT22;3006;50.956;7.002;2022-12-29T15:40:28;11.90;99.90
5960;DHT22;3006;50.956;7.002;2022-12-29T15:43:26;11.90;99.90
5960;DHT22;3006;50.956;7.002;2022-12-29T15:45:57;11.80;99.90
5960;DHT22;3006;50.956;7.002;2022-12-29T15:48:28;11.80;99.90
5960;DHT22;3006;50.956;7.002;2022-12-29T15:51:00;11.80;99.90
5960;DHT22;3006;50.956;7.002;2022-12-29T15:53:30;11.80;99.90
5960;DHT22;3006;50.956;7.002;2022-12-29T15:56:01;11.70;99.90
5960;DHT22;3006;50.956;7.002;2022-12-29T15:58:30;11.70;99.90
5960;DHT22;3006;50.956;7.002;2022-12-29T16:01:00;11.70;99.90
5960;DHT22;3006;50.956;7.002;2022-12-29T16:03:32;11.70;99.90
5960;DHT22;3006;50.956;7.002;2022-12-29T16:06:10;11.60;99.90
5960;DHT22;3006;50.956;7.002;2022-12-29T16:08:39;11.60;99.90
5960;DHT22;3006;50.956;7.002;2022-12-29T16:11:19;11.60;99.90
5960;DHT22;3006;50.956;7.002;2022-12-29T16:13:50;11.50;99.90
5960;DHT22;3006;50.956;7.002;2022-12-29T16:16:22;11.40;99.90
5960;DHT22;3006;50.956;7.002;2022-12-29T16:18:51;11.50;99.90
5960;DHT22;3006;50.956;7.002;2022-12-29T16:21:29;11.40;99.90
5960;DHT22;3006;50.956;7.002;2022-12-29T16:24:02;11.30;99.90
5960;DHT22;3006;50.956;7.002;2022-12-29T16:26:32;11.30;99.90
5960;DHT22;3006;50.956;7.002;2022-12-29T16:29:01;11.30;99.90
5960;DHT22;3006;50.956;7.002;2022-12-29T16:31:34;11.30;99.90
5960;DHT22;3006;50.956;7.002;2022-12-29T16:34:12;11.30;99.90
5960;DHT22;3006;50.956;7.002;2022-12-29T16:36:53;11.30;99.90
5960;DHT22;3006;50.956;7.002;2022-12-29T16:39:31;11.30;99.90
5960;DHT22;3006;50.956;7.002;2022-12-29T16:42:01;11.20;99.90
5960;DHT22;3006;50.956;7.002;2022-12-29T16:44:30;11.10;99.90
5960;DHT22;3006;50.956;7.002;2022-12-29T16:47:18;11.10;99.90
5960;DHT22;3006;50.956;7.002;2022-12-29T16:49:50;11.10;99.90